createdAt,value
2022-11-20T00:01:23.949Z,17.60
2022-11-20T00:04:27.160Z,17.00
2022-11-20T00:07:30.467Z,16.77
2022-11-20T00:10:36.797Z,16.75
2022-11-20T00:13:40.386Z,16.67
2022-11-20T00:16:46.312Z,17.33
2022-11-20T00:19:49.528Z,16.48
2022-11-20T00:22:52.809Z,18.37
2022-11-20T00:25:56.033Z,17.45
2022-11-20T00:29:01.483Z,18.17
2022-11-20T00:32:04.832Z,16.23
2022-11-20T00:35:08.208Z,16.23
2022-11-20T00:38:11.412Z,17.90
2022-11-20T00:41:16.706Z,18.08
2022-11-20T00:44:19.885Z,19.17
2022-11-20T00:47:23.019Z,17.65
2022-11-20T00:50:26.377Z,20.08
2022-11-20T00:53:29.508Z,17.60
2022-11-20T00:56:32.721Z,18.95
2022-11-20T00:59:35.943Z,17.45
2022-11-20T01:02:39.060Z,19.23
2022-11-20T01:05:42.399Z,19.67
2022-11-20T01:08:46.400Z,19.42
2022-11-20T01:11:49.832Z,19.65
2022-11-20T01:14:53.030Z,18.30
2022-11-20T01:17:56.166Z,20.65
2022-11-20T01:21:21.608Z,21.25
2022-11-20T01:24:24.962Z,20.10
2022-11-20T01:27:28.123Z,20.13
2022-11-20T01:30:31.311Z,19.58
2022-11-20T01:33:34.556Z,19.63
2022-11-20T01:36:39.268Z,19.63
2022-11-20T01:39:43.280Z,21.42
2022-11-20T01:43:13.076Z,21.65
2022-11-20T01:46:20.549Z,19.00
2022-11-20T01:49:34.697Z,20.67
2022-11-20T01:52:56.860Z,19.98
2022-11-20T01:56:02.924Z,19.63
2022-11-20T01:59:09.478Z,23.80
2022-11-20T02:02:12.720Z,23.95
2022-11-20T02:05:34.972Z,21.60
2022-11-20T02:08:39.280Z,20.90
2022-11-20T02:11:42.544Z,24.45
2022-11-20T02:14:45.762Z,23.67
2022-11-20T02:17:49.677Z,26.23
2022-11-20T02:21:04.189Z,24.40
2022-11-20T02:24:12.461Z,22.65
2022-11-20T02:27:17.778Z,22.10
2022-11-20T02:30:21.243Z,24.50
2022-11-20T02:33:24.544Z,22.33
2022-11-20T02:36:33.842Z,24.92
2022-11-20T02:39:37.141Z,23.90
2022-11-20T02:42:40.324Z,25.77
2022-11-20T02:45:43.483Z,23.85
2022-11-20T02:48:46.858Z,24.00
2022-11-20T02:51:50.079Z,23.40
2022-11-20T02:54:56.176Z,24.45
2022-11-20T02:58:01.797Z,25.25
2022-11-20T03:01:05.196Z,23.97
2022-11-20T03:04:08.733Z,25.58
2022-11-20T03:07:11.953Z,24.42
2022-11-20T03:10:15.318Z,27.77
2022-11-20T03:13:18.583Z,26.75
2022-11-20T03:16:23.493Z,24.58
2022-11-20T03:19:26.688Z,26.65
2022-11-20T03:22:33.028Z,27.90
2022-11-20T03:25:36.547Z,27.15
2022-11-20T03:28:40.423Z,26.83
2022-11-20T03:31:43.659Z,25.27
2022-11-20T03:34:46.830Z,24.02
2022-11-20T03:37:50.067Z,25.35
2022-11-20T03:40:58.520Z,23.17
2022-11-20T03:44:03.647Z,24.20
2022-11-20T03:47:06.819Z,24.17
2022-11-20T03:50:11.318Z,23.45
2022-11-20T03:53:15.200Z,24.42
2022-11-20T03:56:20.280Z,25.42
2022-11-20T03:59:23.782Z,25.75
2022-11-20T04:02:27.174Z,24.53
2022-11-20T04:05:30.395Z,26.10
2022-11-20T04:08:33.816Z,22.38
2022-11-20T04:11:40.389Z,26.40
2022-11-20T04:14:43.701Z,24.35
2022-11-20T04:17:46.908Z,24.58
2022-11-20T04:20:50.085Z,24.10
2022-11-20T04:23:54.010Z,24.40
2022-11-20T04:26:57.169Z,26.63
2022-11-20T04:30:00.437Z,22.98
2022-11-20T04:33:03.718Z,23.30
2022-11-20T04:36:11.552Z,19.92
2022-11-20T04:39:19.058Z,23.05
2022-11-20T04:42:31.553Z,23.73
2022-11-20T04:45:34.703Z,22.33
2022-11-20T04:48:37.941Z,21.65
2022-11-20T04:51:41.157Z,20.17
2022-11-20T04:54:44.407Z,20.45
2022-11-20T04:57:50.533Z,20.10
2022-11-20T05:00:53.839Z,21.10
2022-11-20T05:03:57.049Z,20.87
2022-11-20T05:07:00.360Z,18.92
2022-11-20T05:10:03.673Z,19.45
2022-11-20T05:13:06.867Z,20.03
2022-11-20T05:16:12.641Z,19.50
2022-11-20T05:19:15.920Z,19.83
2022-11-20T05:22:19.187Z,19.13
2022-11-20T05:25:22.357Z,20.02
2022-11-20T05:28:28.040Z,18.10
2022-11-20T05:31:31.227Z,18.17
2022-11-20T05:34:34.742Z,19.87
2022-11-20T05:37:38.053Z,16.25
2022-11-20T05:40:42.464Z,18.88
2022-11-20T05:43:47.390Z,16.70
2022-11-20T05:46:50.651Z,17.77
2022-11-20T05:49:53.980Z,16.52
2022-11-20T05:53:00.570Z,18.35
2022-11-20T05:56:06.189Z,19.00
2022-11-20T05:59:09.601Z,18.70
2022-11-20T06:02:13.262Z,16.77
2022-11-20T06:05:16.768Z,19.97
2022-11-20T06:08:20.036Z,18.77
2022-11-20T06:11:23.395Z,18.20
2022-11-20T06:14:26.578Z,19.83
2022-11-20T06:17:29.837Z,16.75
2022-11-20T06:20:35.623Z,17.50
2022-11-20T06:23:43.149Z,19.30
2022-11-20T06:26:46.728Z,17.60
2022-11-20T06:29:50.022Z,17.15
2022-11-20T06:32:53.476Z,16.48
2022-11-20T06:36:04.650Z,16.33
2022-11-20T06:39:12.344Z,15.80
2022-11-20T06:42:15.629Z,17.30
2022-11-20T06:45:18.837Z,17.77
2022-11-20T06:48:23.225Z,15.80
2022-11-20T06:51:27.156Z,17.20
2022-11-20T06:54:30.365Z,16.33
2022-11-20T06:57:33.794Z,15.98
2022-11-20T07:00:37.142Z,16.35
2022-11-20T07:03:41.317Z,14.80
2022-11-20T07:06:44.517Z,16.03
2022-11-20T07:09:47.712Z,18.15
2022-11-20T07:12:52.049Z,17.25
2022-11-20T07:15:55.761Z,16.37
2022-11-20T07:18:59.004Z,18.08
2022-11-20T07:22:02.128Z,17.25
2022-11-20T07:25:05.850Z,17.85
2022-11-20T07:28:09.295Z,18.75
2022-11-20T07:31:18.731Z,18.38
2022-11-20T07:34:23.198Z,19.10
2022-11-20T07:37:26.491Z,17.67
2022-11-20T07:40:29.853Z,17.65
2022-11-20T07:43:35.887Z,15.63
2022-11-20T07:46:43.085Z,14.82
2022-11-20T07:49:46.772Z,15.15
2022-11-20T07:52:50.429Z,14.90
2022-11-20T07:55:53.740Z,15.00
2022-11-20T07:58:57.349Z,15.33
2022-11-20T08:02:00.575Z,14.95
2022-11-20T08:05:03.753Z,14.40
2022-11-20T08:08:08.165Z,13.57
2022-11-20T08:11:32.639Z,14.57
2022-11-20T08:14:35.784Z,12.23
2022-11-20T08:17:38.921Z,12.25
2022-11-20T08:20:42.155Z,13.32
2022-11-20T08:23:45.372Z,11.63
2022-11-20T08:26:48.543Z,13.48
2022-11-20T08:29:51.907Z,13.03
2022-11-20T08:32:55.224Z,12.25
2022-11-20T08:36:03.577Z,12.10
2022-11-20T08:39:07.129Z,12.13
2022-11-20T08:42:10.451Z,12.20
2022-11-20T08:45:13.630Z,11.88
2022-11-20T08:48:17.057Z,12.52
2022-11-20T08:51:21.219Z,12.30
2022-11-20T08:54:24.470Z,12.90
2022-11-20T08:57:27.661Z,12.57
2022-11-20T09:00:30.968Z,11.60
2022-11-20T09:03:34.459Z,12.20
2022-11-20T09:06:37.753Z,10.40
2022-11-20T09:09:40.976Z,11.30
2022-11-20T09:12:44.313Z,11.80
2022-11-20T09:15:47.760Z,11.32
2022-11-20T09:19:07.246Z,10.73
2022-11-20T09:22:15.988Z,10.73
2022-11-20T09:25:19.770Z,9.90
2022-11-20T09:28:23.360Z,11.10
2022-11-20T09:31:29.674Z,12.18
2022-11-20T09:34:33.634Z,11.75
2022-11-20T09:37:37.046Z,11.50
2022-11-20T09:40:45.565Z,10.65
2022-11-20T09:44:16.374Z,10.93
2022-11-20T09:47:29.118Z,10.32
2022-11-20T09:50:55.609Z,10.60
2022-11-20T09:54:14.385Z,11.13
2022-11-20T09:57:23.167Z,11.38
2022-11-20T10:00:27.200Z,12.32
2022-11-20T10:03:45.338Z,11.07
2022-11-20T10:07:30.945Z,10.87
2022-11-20T10:10:46.486Z,12.27
2022-11-20T10:14:16.980Z,11.15
2022-11-20T10:17:52.351Z,11.05
2022-11-20T10:21:33.851Z,10.73
2022-11-20T10:24:55.768Z,11.02
2022-11-20T10:28:24.516Z,9.50
2022-11-20T10:31:43.792Z,9.80
2022-11-20T10:35:00.914Z,10.13
2022-11-20T10:38:11.063Z,9.52
2022-11-20T10:41:25.428Z,10.73
2022-11-20T10:44:52.339Z,10.80
2022-11-20T10:48:17.449Z,9.98
2022-11-20T10:51:59.321Z,9.40
2022-11-20T10:55:27.174Z,9.63
2022-11-20T10:58:48.064Z,9.17
2022-11-20T11:01:51.397Z,9.10
2022-11-20T11:04:55.598Z,9.80
2022-11-20T11:08:00.245Z,10.57
2022-11-20T11:11:25.711Z,9.03
2022-11-20T11:14:28.841Z,9.07
2022-11-20T11:17:34.586Z,9.40
2022-11-20T11:20:52.422Z,10.07
2022-11-20T11:24:26.820Z,9.77
2022-11-20T11:27:27.452Z,9.48
2022-11-20T11:30:42.151Z,10.05
2022-11-20T11:33:45.371Z,9.97
2022-11-20T11:36:58.392Z,10.43
2022-11-20T11:40:23.308Z,9.20
2022-11-20T11:43:50.673Z,9.75
2022-11-20T11:46:57.076Z,9.07
2022-11-20T11:50:22.015Z,9.65
2022-11-20T11:53:28.745Z,8.95
2022-11-20T11:56:34.127Z,8.45
2022-11-20T11:59:55.101Z,9.53
2022-11-20T12:03:10.418Z,8.90
2022-11-20T12:06:16.195Z,8.68
2022-11-20T12:09:24.923Z,8.63
2022-11-20T12:12:44.040Z,8.80
2022-11-20T12:15:48.449Z,7.95
2022-11-20T12:18:53.741Z,8.30
2022-11-20T12:22:05.225Z,7.75
2022-11-20T12:25:23.391Z,7.78
2022-11-20T12:28:41.145Z,8.35
2022-11-20T12:32:07.079Z,8.65
2022-11-20T12:35:31.283Z,8.70
2022-11-20T12:38:59.104Z,8.40
2022-11-20T12:42:39.444Z,7.93
2022-11-20T12:46:12.719Z,8.25
2022-11-20T12:49:22.525Z,8.40
2022-11-20T12:52:57.535Z,8.25
2022-11-20T12:56:39.550Z,8.45
2022-11-20T13:00:10.909Z,8.60
2022-11-20T13:03:40.174Z,8.07
2022-11-20T13:06:44.811Z,9.00
2022-11-20T13:09:53.065Z,8.45
2022-11-20T13:13:20.369Z,8.52
2022-11-20T13:16:47.300Z,9.13
2022-11-20T13:19:55.412Z,7.90
2022-11-20T13:22:59.829Z,8.83
2022-11-20T13:26:25.022Z,8.82
2022-11-20T13:29:28.538Z,8.43
2022-11-20T13:32:33.416Z,8.85
2022-11-20T13:35:43.820Z,8.88
2022-11-20T13:38:52.423Z,9.70
2022-11-20T13:41:57.807Z,8.32
2022-11-20T13:45:12.740Z,8.20
2022-11-20T13:48:25.058Z,9.07
2022-11-20T13:51:49.789Z,8.35
2022-11-20T13:55:21.378Z,8.95
2022-11-20T13:58:46.445Z,9.10
2022-11-20T14:01:50.447Z,9.20
2022-11-20T14:04:57.701Z,8.57
2022-11-20T14:08:02.007Z,8.45
2022-11-20T14:11:25.908Z,9.02
2022-11-20T14:14:31.201Z,8.48
2022-11-20T14:17:36.445Z,7.83
2022-11-20T14:20:40.438Z,8.43
2022-11-20T14:23:43.774Z,8.63
2022-11-20T14:26:48.139Z,9.15
2022-11-20T14:29:52.291Z,8.40
2022-11-20T14:33:02.192Z,8.55
2022-11-20T14:36:05.868Z,9.60
2022-11-20T14:39:13.217Z,8.90
2022-11-20T14:42:19.404Z,9.00
2022-11-20T14:45:23.712Z,8.73
2022-11-20T14:48:57.748Z,9.38
2022-11-20T14:52:22.791Z,10.03
2022-11-20T14:55:35.945Z,9.20
2022-11-20T14:58:39.506Z,10.00
2022-11-20T15:02:04.221Z,9.65
2022-11-20T15:05:07.928Z,9.50
2022-11-20T15:08:12.437Z,10.02
2022-11-20T15:11:21.540Z,10.27
2022-11-20T15:14:26.384Z,9.68
2022-11-20T15:17:30.062Z,9.85
2022-11-20T15:20:35.614Z,9.80
2022-11-20T15:23:38.990Z,9.75
2022-11-20T15:26:42.746Z,10.35
2022-11-20T15:29:46.136Z,10.20
2022-11-20T15:32:50.032Z,10.00
2022-11-20T15:35:53.773Z,10.65
2022-11-20T15:38:57.122Z,9.38
2022-11-20T15:42:00.540Z,10.33
2022-11-20T15:45:04.188Z,9.93
2022-11-20T15:48:31.148Z,10.60
2022-11-20T15:51:39.551Z,11.30
2022-11-20T15:54:42.864Z,11.90
2022-11-20T15:57:46.827Z,11.20
2022-11-20T16:00:50.138Z,10.80
2022-11-20T16:03:53.494Z,11.82
2022-11-20T16:06:57.133Z,10.93
2022-11-20T16:10:00.372Z,11.65
2022-11-20T16:13:23.063Z,10.88
2022-11-20T16:16:33.272Z,11.10
2022-11-20T16:19:36.719Z,9.73
2022-11-20T16:22:40.303Z,11.45
2022-11-20T16:25:44.742Z,11.45
2022-11-20T16:28:48.304Z,11.50
2022-11-20T16:31:52.685Z,11.07
2022-11-20T16:34:56.078Z,10.87
2022-11-20T16:38:02.905Z,12.55
2022-11-20T16:41:07.117Z,11.63
2022-11-20T16:44:11.876Z,10.88
2022-11-20T16:47:15.400Z,11.77
2022-11-20T16:50:18.963Z,11.25
2022-11-20T16:53:23.257Z,12.02
2022-11-20T16:56:27.832Z,11.20
2022-11-20T16:59:31.274Z,10.83
2022-11-20T17:02:34.765Z,10.73
2022-11-20T17:05:38.662Z,12.07
2022-11-20T17:08:42.859Z,12.23
2022-11-20T17:11:46.320Z,12.17
2022-11-20T17:14:49.523Z,11.05
2022-11-20T17:17:52.940Z,11.80
2022-11-20T17:20:56.445Z,11.82
2022-11-20T17:24:07.999Z,12.20
2022-11-20T17:27:13.964Z,11.90
2022-11-20T17:30:17.365Z,11.88
2022-11-20T17:33:20.685Z,12.10
2022-11-20T17:36:24.124Z,12.57
2022-11-20T17:39:27.593Z,13.77
2022-11-20T17:42:36.747Z,13.60
2022-11-20T17:45:40.320Z,12.13
2022-11-20T17:48:45.548Z,13.60
2022-11-20T17:51:48.756Z,12.30
2022-11-20T17:54:55.860Z,13.10
2022-11-20T17:58:02.853Z,12.50
2022-11-20T18:01:08.235Z,12.77
2022-11-20T18:04:12.581Z,12.03
2022-11-20T18:07:16.206Z,12.25
2022-11-20T18:10:20.226Z,12.25
2022-11-20T18:13:47.592Z,11.82
2022-11-20T18:16:57.635Z,12.30
2022-11-20T18:20:27.186Z,12.10
2022-11-20T18:23:24.563Z,12.77
2022-11-20T18:26:27.746Z,12.55
2022-11-20T18:29:31.546Z,12.50
2022-11-20T18:32:37.682Z,12.07
2022-11-20T18:35:43.055Z,12.38
2022-11-20T18:38:49.336Z,11.98
2022-11-20T18:42:11.673Z,12.73
2022-11-20T18:45:15.091Z,12.45
2022-11-20T18:48:18.528Z,12.68
2022-11-20T18:51:22.008Z,11.18
2022-11-20T18:54:25.840Z,12.07
2022-11-20T18:57:30.681Z,11.93
2022-11-20T19:00:34.232Z,12.00
2022-11-20T19:03:37.587Z,13.15
2022-11-20T19:06:42.357Z,13.13
2022-11-20T19:09:49.992Z,13.23
2022-11-20T19:12:53.789Z,13.85
2022-11-20T19:16:06.628Z,13.07
2022-11-20T19:19:10.301Z,12.57
2022-11-20T19:22:14.801Z,13.52
2022-11-20T19:25:18.241Z,12.55
2022-11-20T19:28:21.746Z,12.70
2022-11-20T19:31:29.339Z,12.47
2022-11-20T19:34:32.950Z,12.65
2022-11-20T19:37:36.446Z,12.57
2022-11-20T19:40:40.013Z,11.68
2022-11-20T19:43:43.418Z,12.47
2022-11-20T19:46:47.227Z,12.90
2022-11-20T19:49:50.809Z,12.95
2022-11-20T19:52:58.505Z,12.60
2022-11-20T19:56:02.903Z,12.17
2022-11-20T19:59:06.513Z,13.70
2022-11-20T20:02:11.931Z,13.40
2022-11-20T20:05:15.228Z,14.95
2022-11-20T20:08:18.725Z,13.05
2022-11-20T20:11:24.002Z,13.30
2022-11-20T20:14:27.626Z,13.50
2022-11-20T20:17:32.144Z,13.67
2022-11-20T20:20:35.474Z,14.27
2022-11-20T20:23:40.214Z,13.43
2022-11-20T20:26:43.766Z,13.70
2022-11-20T20:29:47.216Z,14.33
2022-11-20T20:32:55.901Z,13.10
2022-11-20T20:35:59.998Z,14.10
2022-11-20T20:39:03.699Z,14.57
2022-11-20T20:42:07.378Z,15.30
2022-11-20T20:45:11.311Z,14.20
2022-11-20T20:48:17.000Z,13.40
2022-11-20T20:51:20.765Z,14.13
2022-11-20T20:54:24.200Z,14.13
2022-11-20T20:57:28.791Z,13.65
2022-11-20T21:00:32.140Z,15.00
2022-11-20T21:03:36.598Z,15.00
2022-11-20T21:06:39.982Z,14.60
2022-11-20T21:09:43.159Z,14.88
2022-11-20T21:12:46.456Z,14.43
2022-11-20T21:15:51.210Z,14.15
2022-11-20T21:18:55.124Z,15.53
2022-11-20T21:22:02.977Z,15.15
2022-11-20T21:25:06.816Z,15.52
2022-11-20T21:28:14.237Z,15.88
2022-11-20T21:31:22.718Z,15.93
2022-11-20T21:34:26.412Z,14.60
2022-11-20T21:37:29.790Z,15.32
2022-11-20T21:40:33.214Z,15.70
2022-11-20T21:43:36.939Z,14.87
2022-11-20T21:46:44.182Z,15.75
2022-11-20T21:49:48.344Z,16.33
2022-11-20T21:52:51.485Z,16.10
2022-11-20T21:55:55.956Z,15.60
2022-11-20T21:58:59.178Z,15.48
2022-11-20T22:02:02.455Z,16.08
2022-11-20T22:05:06.171Z,15.65
2022-11-20T22:08:09.468Z,16.47
2022-11-20T22:11:15.439Z,16.92
2022-11-20T22:14:21.795Z,16.52
2022-11-20T22:17:45.225Z,15.63
2022-11-20T22:20:48.407Z,16.83
2022-11-20T22:23:52.149Z,14.88
2022-11-20T22:26:55.861Z,16.55
2022-11-20T22:29:59.093Z,15.73
2022-11-20T22:33:02.250Z,15.80
2022-11-20T22:36:08.920Z,16.58
2022-11-20T22:39:12.180Z,16.90
2022-11-20T22:42:15.316Z,15.85
2022-11-20T22:45:18.656Z,16.77
2022-11-20T22:48:22.059Z,16.33
2022-11-20T22:51:28.312Z,16.25
2022-11-20T22:54:31.512Z,15.60
2022-11-20T22:57:34.636Z,15.75
2022-11-20T23:00:37.793Z,15.40
2022-11-20T23:03:43.120Z,15.95
2022-11-20T23:06:46.332Z,16.20
2022-11-20T23:09:49.608Z,15.73
2022-11-20T23:12:53.987Z,17.52
2022-11-20T23:16:12.960Z,17.75
2022-11-20T23:19:16.269Z,17.60
2022-11-20T23:22:19.465Z,17.23
2022-11-20T23:25:22.693Z,17.10
2022-11-20T23:28:26.281Z,17.42
2022-11-20T23:31:32.120Z,17.65
2022-11-20T23:34:35.419Z,18.67
2022-11-20T23:37:38.635Z,17.83
2022-11-20T23:40:42.095Z,18.83
2022-11-20T23:43:45.318Z,18.60
2022-11-20T23:46:48.697Z,17.90
2022-11-20T23:49:52.033Z,17.80
2022-11-20T23:52:55.316Z,19.10
2022-11-20T23:56:01.164Z,17.73
2022-11-20T23:59:07.409Z,19.50
